sensor_id;sensor_type;location;lat;lon;timestamp;temperature;humidity
69533;DHT22;56729;52.036;5.332;2023-04-10T00:00:27;8.80;95.50
69533;DHT22;56729;52.036;5.332;2023-04-10T00:01:29;8.70;95.50
69533;DHT22;56729;52.036;5.332;2023-04-10T00:02:36;8.80;95.50
69533;DHT22;56729;52.036;5.332;2023-04-10T00:03:39;8.70;95.50
69533;DHT22;56729;52.036;5.332;2023-04-10T00:04:42;8.70;95.70
69533;DHT22;56729;52.036;5.332;2023-04-10T00:05:44;8.70;95.80
69533;DHT22;56729;52.036;5.332;2023-04-10T00:06:46;8.70;95.90
69533;DHT22;56729;52.036;5.332;2023-04-10T00:07:49;8.70;96.00
69533;DHT22;56729;52.036;5.332;2023-04-10T00:08:51;8.70;96.00
69533;DHT22;56729;52.036;5.332;2023-04-10T00:09:53;8.70;96.10
69533;DHT22;56729;52.036;5.332;2023-04-10T00:10:55;8.70;96.30
69533;DHT22;56729;52.036;5.332;2023-04-10T00:11:58;8.70;96.30
69533;DHT22;56729;52.036;5.332;2023-04-10T00:13:02;8.70;96.40
69533;DHT22;56729;52.036;5.332;2023-04-10T00:14:05;8.60;96.40
69533;DHT22;56729;52.036;5.332;2023-04-10T00:15:07;8.60;96.50
69533;DHT22;56729;52.036;5.332;2023-04-10T00:16:10;8.70;96.50
69533;DHT22;56729;52.036;5.332;2023-04-10T00:17:12;8.70;96.50
69533;DHT22;56729;52.036;5.332;2023-04-10T00:18:14;8.70;97.00
69533;DHT22;56729;52.036;5.332;2023-04-10T00:19:16;8.60;96.50
69533;DHT22;56729;52.036;5.332;2023-04-10T00:20:18;8.60;96.50
69533;DHT22;56729;52.036;5.332;2023-04-10T00:21:20;8.70;96.50
69533;DHT22;56729;52.036;5.332;2023-04-10T00:22:22;8.60;96.50
69533;DHT22;56729;52.036;5.332;2023-04-10T00:23:23;8.60;96.50
69533;DHT22;56729;52.036;5.332;2023-04-10T00:24:26;8.70;96.60
69533;DHT22;56729;52.036;5.332;2023-04-10T00:25:29;8.70;96.50
69533;DHT22;56729;52.036;5.332;2023-04-10T00:26:30;8.70;96.60
69533;DHT22;56729;52.036;5.332;2023-04-10T00:27:32;8.70;96.60
69533;DHT22;56729;52.036;5.332;2023-04-10T00:28:35;8.70;96.60
69533;DHT22;56729;52.036;5.332;2023-04-10T00:29:38;8.60;96.50
69533;DHT22;56729;52.036;5.332;2023-04-10T00:30:40;8.70;96.50
69533;DHT22;56729;52.036;5.332;2023-04-10T00:31:42;8.60;96.40
69533;DHT22;56729;52.036;5.332;2023-04-10T00:32:44;8.60;96.50
69533;DHT22;56729;52.036;5.332;2023-04-10T00:33:46;8.60;96.50
69533;DHT22;56729;52.036;5.332;2023-04-10T00:34:48;8.60;96.50
69533;DHT22;56729;52.036;5.332;2023-04-10T00:35:50;8.60;96.50
69533;DHT22;56729;52.036;5.332;2023-04-10T00:36:53;8.60;96.50
69533;DHT22;56729;52.036;5.332;2023-04-10T00:37:55;8.60;96.60
69533;DHT22;56729;52.036;5.332;2023-04-10T00:38:58;8.60;96.60
69533;DHT22;56729;52.036;5.332;2023-04-10T00:40:00;8.60;96.60
69533;DHT22;56729;52.036;5.332;2023-04-10T00:41:02;8.50;96.70
69533;DHT22;56729;52.036;5.332;2023-04-10T00:42:04;8.60;96.90
69533;DHT22;56729;52.036;5.332;2023-04-10T00:43:10;8.60;96.90
69533;DHT22;56729;52.036;5.332;2023-04-10T00:44:11;8.50;96.90
69533;DHT22;56729;52.036;5.332;2023-04-10T00:45:13;8.50;97.40
69533;DHT22;56729;52.036;5.332;2023-04-10T00:46:16;8.50;97.00
69533;DHT22;56729;52.036;5.332;2023-04-10T00:47:18;8.50;97.10
69533;DHT22;56729;52.036;5.332;2023-04-10T00:48:20;8.50;97.10
69533;DHT22;56729;52.036;5.332;2023-04-10T00:49:22;8.50;97.10
69533;DHT22;56729;52.036;5.332;2023-04-10T00:50:24;8.50;97.10
69533;DHT22;56729;52.036;5.332;2023-04-10T00:51:26;8.50;97.20
69533;DHT22;56729;52.036;5.332;2023-04-10T00:52:28;8.50;97.20
69533;DHT22;56729;52.036;5.332;2023-04-10T00:53:30;8.60;97.30
69533;DHT22;56729;52.036;5.332;2023-04-10T00:54:32;8.60;97.20
69533;DHT22;56729;52.036;5.332;2023-04-10T00:55:36;8.50;97.20
69533;DHT22;56729;52.036;5.332;2023-04-10T00:56:39;8.50;97.10
69533;DHT22;56729;52.036;5.332;2023-04-10T00:57:44;8.50;97.10
69533;DHT22;56729;52.036;5.332;2023-04-10T00:58:49;8.50;97.10
69533;DHT22;56729;52.036;5.332;2023-04-10T00:59:52;8.50;97.10
69533;DHT22;56729;52.036;5.332;2023-04-10T01:00:54;8.50;97.20
69533;DHT22;56729;52.036;5.332;2023-04-10T01:02:00;8.50;97.20
69533;DHT22;56729;52.036;5.332;2023-04-10T01:03:03;8.50;97.20
69533;DHT22;56729;52.036;5.332;2023-04-10T01:04:06;8.50;97.20
69533;DHT22;56729;52.036;5.332;2023-04-10T01:05:11;8.50;97.30
69533;DHT22;56729;52.036;5.332;2023-04-10T01:08:20;8.50;97.30
69533;DHT22;56729;52.036;5.332;2023-04-10T01:10:50;8.40;97.30
69533;DHT22;56729;52.036;5.332;2023-04-10T01:13:14;8.40;97.60
69533;DHT22;56729;52.036;5.332;2023-04-10T01:14:37;8.40;97.60
69533;DHT22;56729;52.036;5.332;2023-04-10T01:15:48;8.40;97.70
69533;DHT22;56729;52.036;5.332;2023-04-10T01:16:57;8.40;97.70
69533;DHT22;56729;52.036;5.332;2023-04-10T01:20:49;8.40;97.90
69533;DHT22;56729;52.036;5.332;2023-04-10T01:21:53;8.30;98.00
69533;DHT22;56729;52.036;5.332;2023-04-10T01:24:17;8.40;98.30
69533;DHT22;56729;52.036;5.332;2023-04-10T01:29:28;8.30;98.00
69533;DHT22;56729;52.036;5.332;2023-04-10T01:30:34;8.30;98.10
69533;DHT22;56729;52.036;5.332;2023-04-10T01:32:54;8.30;98.30
69533;DHT22;56729;52.036;5.332;2023-04-10T01:34:00;8.30;98.40
69533;DHT22;56729;52.036;5.332;2023-04-10T01:35:05;8.30;98.50
69533;DHT22;56729;52.036;5.332;2023-04-10T01:36:09;8.30;98.70
69533;DHT22;56729;52.036;5.332;2023-04-10T01:37:34;8.30;99.20
69533;DHT22;56729;52.036;5.332;2023-04-10T01:38:39;8.30;98.80
69533;DHT22;56729;52.036;5.332;2023-04-10T01:39:42;8.30;98.80
69533;DHT22;56729;52.036;5.332;2023-04-10T01:40:51;8.30;98.90
69533;DHT22;56729;52.036;5.332;2023-04-10T01:42:01;8.30;99.00
69533;DHT22;56729;52.036;5.332;2023-04-10T01:43:12;8.20;99.00
69533;DHT22;56729;52.036;5.332;2023-04-10T01:44:23;8.20;99.10
69533;DHT22;56729;52.036;5.332;2023-04-10T01:45:28;8.20;99.20
69533;DHT22;56729;52.036;5.332;2023-04-10T01:46:31;8.20;99.20
69533;DHT22;56729;52.036;5.332;2023-04-10T01:47:34;8.20;99.20
69533;DHT22;56729;52.036;5.332;2023-04-10T01:48:37;8.20;99.30
69533;DHT22;56729;52.036;5.332;2023-04-10T01:49:40;8.20;99.50
69533;DHT22;56729;52.036;5.332;2023-04-10T01:50:46;8.20;99.70
69533;DHT22;56729;52.036;5.332;2023-04-10T01:51:50;8.20;99.80
69533;DHT22;56729;52.036;5.332;2023-04-10T01:52:53;8.20;99.90
69533;DHT22;56729;52.036;5.332;2023-04-10T01:54:00;8.20;99.90
69533;DHT22;56729;52.036;5.332;2023-04-10T01:55:04;8.20;99.90
69533;DHT22;56729;52.036;5.332;2023-04-10T01:56:17;8.20;99.90
69533;DHT22;56729;52.036;5.332;2023-04-10T01:57:20;8.20;99.90
69533;DHT22;56729;52.036;5.332;2023-04-10T01:58:31;8.30;99.90
69533;DHT22;56729;52.036;5.332;2023-04-10T01:59:33;8.30;99.90
69533;DHT22;56729;52.036;5.332;2023-04-10T02:00:39;8.30;99.90
69533;DHT22;56729;52.036;5.332;2023-04-10T02:01:43;8.30;99.90
69533;DHT22;56729;52.036;5.332;2023-04-10T02:02:46;8.30;99.90
69533;DHT22;56729;52.036;5.332;2023-04-10T02:03:48;8.30;99.90
69533;DHT22;56729;52.036;5.332;2023-04-10T02:04:50;8.30;99.90
69533;DHT22;56729;52.036;5.332;2023-04-10T02:07:30;8.30;99.90
69533;DHT22;56729;52.036;5.332;2023-04-10T02:08:46;8.30;99.90
69533;DHT22;56729;52.036;5.332;2023-04-10T02:10:03;8.30;99.90
69533;DHT22;56729;52.036;5.332;2023-04-10T02:11:17;8.30;99.90
69533;DHT22;56729;52.036;5.332;2023-04-10T02:12:39;8.30;99.90
69533;DHT22;56729;52.036;5.332;2023-04-10T02:13:42;8.30;99.90
69533;DHT22;56729;52.036;5.332;2023-04-10T02:14:46;8.30;99.90
69533;DHT22;56729;52.036;5.332;2023-04-10T02:15:49;8.30;99.90
69533;DHT22;56729;52.036;5.332;2023-04-10T02:16:53;8.30;99.90
69533;DHT22;56729;52.036;5.332;2023-04-10T02:17:57;8.40;99.90
69533;DHT22;56729;52.036;5.332;2023-04-10T02:19:01;8.40;99.90
69533;DHT22;56729;52.036;5.332;2023-04-10T02:20:05;8.30;99.90
69533;DHT22;56729;52.036;5.332;2023-04-10T02:21:08;8.40;99.90
69533;DHT22;56729;52.036;5.332;2023-04-10T02:22:10;8.30;99.90
69533;DHT22;56729;52.036;5.332;2023-04-10T02:23:15;8.40;99.90
69533;DHT22;56729;52.036;5.332;2023-04-10T02:24:19;8.40;99.90
69533;DHT22;56729;52.036;5.332;2023-04-10T02:25:21;8.40;99.90
69533;DHT22;56729;52.036;5.332;2023-04-10T02:26:23;8.40;99.90
69533;DHT22;56729;52.036;5.332;2023-04-10T02:27:29;8.40;99.90
69533;DHT22;56729;52.036;5.332;2023-04-10T02:28:32;8.40;99.90
69533;DHT22;56729;52.036;5.332;2023-04-10T02:29:34;8.40;99.90
69533;DHT22;56729;52.036;5.332;2023-04-10T02:30:37;8.40;99.90
69533;DHT22;56729;52.036;5.332;2023-04-10T02:31:40;8.40;99.90
69533;DHT22;56729;52.036;5.332;2023-04-10T02:32:43;8.40;99.90
69533;DHT22;56729;52.036;5.332;2023-04-10T02:33:44;8.40;99.90
69533;DHT22;56729;52.036;5.332;2023-04-10T02:34:47;8.40;99.90
69533;DHT22;56729;52.036;5.332;2023-04-10T02:35:48;8.40;99.90
69533;DHT22;56729;52.036;5.332;2023-04-10T02:36:50;8.40;99.90
69533;DHT22;56729;52.036;5.332;2023-04-10T02:37:53;8.40;99.90
69533;DHT22;56729;52.036;5.332;2023-04-10T02:38:55;8.40;99.90
69533;DHT22;56729;52.036;5.332;2023-04-10T02:39:59;8.40;99.90
69533;DHT22;56729;52.036;5.332;2023-04-10T02:41:04;8.40;99.90
69533;DHT22;56729;52.036;5.332;2023-04-10T02:42:06;8.40;99.90
69533;DHT22;56729;52.036;5.332;2023-04-10T02:43:08;8.40;99.90
69533;DHT22;56729;52.036;5.332;2023-04-10T02:44:11;8.30;99.90
69533;DHT22;56729;52.036;5.332;2023-04-10T02:45:13;8.30;99.90
69533;DHT22;56729;52.036;5.332;2023-04-10T02:46:16;8.30;99.90
69533;DHT22;56729;52.036;5.332;2023-04-10T02:47:18;8.40;99.90
69533;DHT22;56729;52.036;5.332;2023-04-10T02:48:21;8.40;99.90
69533;DHT22;56729;52.036;5.332;2023-04-10T02:49:28;8.40;99.90
69533;DHT22;56729;52.036;5.332;2023-04-10T02:50:31;8.40;99.90
69533;DHT22;56729;52.036;5.332;2023-04-10T02:51:34;8.30;99.90
69533;DHT22;56729;52.036;5.332;2023-04-10T02:52:38;8.30;99.90
69533;DHT22;56729;52.036;5.332;2023-04-10T02:53:40;8.30;99.90
69533;DHT22;56729;52.036;5.332;2023-04-10T02:54:42;8.40;99.90
69533;DHT22;56729;52.036;5.332;2023-04-10T02:55:43;8.40;99.90
69533;DHT22;56729;52.036;5.332;2023-04-10T02:56:46;8.30;99.90
69533;DHT22;56729;52.036;5.332;2023-04-10T02:57:48;8.30;99.90
69533;DHT22;56729;52.036;5.332;2023-04-10T02:58:50;8.30;99.90
69533;DHT22;56729;52.036;5.332;2023-04-10T02:59:52;8.30;99.90
69533;DHT22;56729;52.036;5.332;2023-04-10T03:00:56;8.30;99.90
69533;DHT22;56729;52.036;5.332;2023-04-10T03:02:10;8.30;99.90
69533;DHT22;56729;52.036;5.332;2023-04-10T03:03:13;8.30;99.90
69533;DHT22;56729;52.036;5.332;2023-04-10T03:04:20;8.30;99.90
69533;DHT22;56729;52.036;5.332;2023-04-10T03:05:22;8.30;99.90
69533;DHT22;56729;52.036;5.332;2023-04-10T03:06:24;8.20;99.90
69533;DHT22;56729;52.036;5.332;2023-04-10T03:07:29;8.20;99.90
69533;DHT22;56729;52.036;5.332;2023-04-10T03:08:32;8.20;99.90
69533;DHT22;56729;52.036;5.332;2023-04-10T03:09:34;8.20;99.90
69533;DHT22;56729;52.036;5.332;2023-04-10T03:10:36;8.20;99.90
69533;DHT22;56729;52.036;5.332;2023-04-10T03:11:38;8.20;99.90
69533;DHT22;56729;52.036;5.332;2023-04-10T03:12:40;8.10;99.90
69533;DHT22;56729;52.036;5.332;2023-04-10T03:13:42;8.20;99.90
69533;DHT22;56729;52.036;5.332;2023-04-10T03:14:44;8.10;99.90
69533;DHT22;56729;52.036;5.332;2023-04-10T03:15:46;8.10;99.90
69533;DHT22;56729;52.036;5.332;2023-04-10T03:16:48;8.10;99.90
69533;DHT22;56729;52.036;5.332;2023-04-10T03:17:51;8.10;99.90
69533;DHT22;56729;52.036;5.332;2023-04-10T03:18:53;8.10;99.90
69533;DHT22;56729;52.036;5.332;2023-04-10T03:19:56;8.10;99.90
69533;DHT22;56729;52.036;5.332;2023-04-10T03:20:58;8.10;99.90
69533;DHT22;56729;52.036;5.332;2023-04-10T03:22:00;8.10;99.90
69533;DHT22;56729;52.036;5.332;2023-04-10T03:23:04;8.10;99.90
69533;DHT22;56729;52.036;5.332;2023-04-10T03:24:06;8.10;99.90
69533;DHT22;56729;52.036;5.332;2023-04-10T03:25:08;8.00;99.90
69533;DHT22;56729;52.036;5.332;2023-04-10T03:26:10;8.00;99.90
69533;DHT22;56729;52.036;5.332;2023-04-10T03:27:12;8.00;99.90
69533;DHT22;56729;52.036;5.332;2023-04-10T03:28:14;8.00;99.90
69533;DHT22;56729;52.036;5.332;2023-04-10T03:29:16;8.00;99.90
69533;DHT22;56729;52.036;5.332;2023-04-10T03:30:19;8.00;99.90
69533;DHT22;56729;52.036;5.332;2023-04-10T03:31:22;7.90;99.90
69533;DHT22;56729;52.036;5.332;2023-04-10T03:32:27;7.90;99.90
69533;DHT22;56729;52.036;5.332;2023-04-10T03:33:31;7.90;99.90
69533;DHT22;56729;52.036;5.332;2023-04-10T03:34:34;7.90;99.90
69533;DHT22;56729;52.036;5.332;2023-04-10T03:35:36;7.90;99.90
69533;DHT22;56729;52.036;5.332;2023-04-10T03:36:40;7.90;99.90
69533;DHT22;56729;52.036;5.332;2023-04-10T03:37:42;7.90;99.90
69533;DHT22;56729;52.036;5.332;2023-04-10T03:38:44;7.90;99.90
69533;DHT22;56729;52.036;5.332;2023-04-10T03:39:46;7.90;99.90
69533;DHT22;56729;52.036;5.332;2023-04-10T03:40:48;7.80;99.90
69533;DHT22;56729;52.036;5.332;2023-04-10T03:41:53;7.80;99.90
69533;DHT22;56729;52.036;5.332;2023-04-10T03:42:58;7.80;99.90
69533;DHT22;56729;52.036;5.332;2023-04-10T03:44:03;7.80;99.90
69533;DHT22;56729;52.036;5.332;2023-04-10T03:45:06;7.80;99.90
69533;DHT22;56729;52.036;5.332;2023-04-10T03:46:08;7.80;99.90
69533;DHT22;56729;52.036;5.332;2023-04-10T03:47:15;7.80;99.90
69533;DHT22;56729;52.036;5.332;2023-04-10T03:48:22;7.70;99.90
69533;DHT22;56729;52.036;5.332;2023-04-10T03:49:24;7.70;99.90
69533;DHT22;56729;52.036;5.332;2023-04-10T03:50:34;7.70;99.90
69533;DHT22;56729;52.036;5.332;2023-04-10T03:51:36;7.70;99.90
69533;DHT22;56729;52.036;5.332;2023-04-10T03:52:39;7.70;99.90
69533;DHT22;56729;52.036;5.332;2023-04-10T03:53:45;7.70;99.90
69533;DHT22;56729;52.036;5.332;2023-04-10T03:54:49;7.70;99.90
69533;DHT22;56729;52.036;5.332;2023-04-10T03:55:58;7.70;99.90
69533;DHT22;56729;52.036;5.332;2023-04-10T03:57:00;7.60;99.90
69533;DHT22;56729;52.036;5.332;2023-04-10T03:58:02;7.70;99.90
69533;DHT22;56729;52.036;5.332;2023-04-10T03:59:05;7.70;99.90
69533;DHT22;56729;52.036;5.332;2023-04-10T04:00:14;7.60;99.90
69533;DHT22;56729;52.036;5.332;2023-04-10T04:01:22;7.60;99.90
69533;DHT22;56729;52.036;5.332;2023-04-10T04:02:31;7.60;99.90
69533;DHT22;56729;52.036;5.332;2023-04-10T04:03:33;7.60;99.90
69533;DHT22;56729;52.036;5.332;2023-04-10T04:04:54;7.60;99.90
69533;DHT22;56729;52.036;5.332;2023-04-10T04:06:19;7.60;99.90
69533;DHT22;56729;52.036;5.332;2023-04-10T04:07:47;7.60;99.90
69533;DHT22;56729;52.036;5.332;2023-04-10T04:09:18;7.60;99.90
69533;DHT22;56729;52.036;5.332;2023-04-10T04:10:39;7.60;99.90
69533;DHT22;56729;52.036;5.332;2023-04-10T04:11:54;7.50;99.90
69533;DHT22;56729;52.036;5.332;2023-04-10T04:13:15;7.60;99.90
69533;DHT22;56729;52.036;5.332;2023-04-10T04:14:39;7.60;99.90
69533;DHT22;56729;52.036;5.332;2023-04-10T04:16:00;7.50;99.90
69533;DHT22;56729;52.036;5.332;2023-04-10T04:17:18;7.50;99.90
69533;DHT22;56729;52.036;5.332;2023-04-10T04:18:31;7.50;99.90
69533;DHT22;56729;52.036;5.332;2023-04-10T04:19:51;7.50;99.90
69533;DHT22;56729;52.036;5.332;2023-04-10T04:21:16;7.50;99.90
69533;DHT22;56729;52.036;5.332;2023-04-10T04:22:37;7.50;99.90
69533;DHT22;56729;52.036;5.332;2023-04-10T04:24:11;7.50;99.90
69533;DHT22;56729;52.036;5.332;2023-04-10T04:25:27;7.50;99.90
69533;DHT22;56729;52.036;5.332;2023-04-10T04:26:45;7.50;99.90
69533;DHT22;56729;52.036;5.332;2023-04-10T04:28:02;7.50;99.90
69533;DHT22;56729;52.036;5.332;2023-04-10T04:29:08;7.50;99.90
69533;DHT22;56729;52.036;5.332;2023-04-10T04:30:36;7.50;99.90
69533;DHT22;56729;52.036;5.332;2023-04-10T04:31:51;7.50;99.90
69533;DHT22;56729;52.036;5.332;2023-04-10T04:33:08;7.50;99.90
69533;DHT22;56729;52.036;5.332;2023-04-10T04:34:36;7.50;99.90
69533;DHT22;56729;52.036;5.332;2023-04-10T04:35:45;7.50;99.90
69533;DHT22;56729;52.036;5.332;2023-04-10T04:36:50;7.50;99.90
69533;DHT22;56729;52.036;5.332;2023-04-10T04:38:11;7.50;99.90
69533;DHT22;56729;52.036;5.332;2023-04-10T04:39:33;7.40;99.90
69533;DHT22;56729;52.036;5.332;2023-04-10T04:40:55;7.40;99.90
69533;DHT22;56729;52.036;5.332;2023-04-10T04:42:20;7.40;99.90
69533;DHT22;56729;52.036;5.332;2023-04-10T04:43:40;7.40;99.90
69533;DHT22;56729;52.036;5.332;2023-04-10T04:45:12;7.40;99.90
69533;DHT22;56729;52.036;5.332;2023-04-10T04:46:40;7.40;99.90
69533;DHT22;56729;52.036;5.332;2023-04-10T04:48:05;7.40;99.90
69533;DHT22;56729;52.036;5.332;2023-04-10T04:49:27;7.40;99.90
69533;DHT22;56729;52.036;5.332;2023-04-10T04:50:48;7.40;99.90
69533;DHT22;56729;52.036;5.332;2023-04-10T04:52:09;7.40;99.90
69533;DHT22;56729;52.036;5.332;2023-04-10T04:53:15;7.40;99.90
69533;DHT22;56729;52.036;5.332;2023-04-10T04:54:32;7.50;99.90
69533;DHT22;56729;52.036;5.332;2023-04-10T04:55:47;7.50;99.90
69533;DHT22;56729;52.036;5.332;2023-04-10T04:57:12;7.50;99.90
69533;DHT22;56729;52.036;5.332;2023-04-10T04:58:36;7.50;99.90
69533;DHT22;56729;52.036;5.332;2023-04-10T04:59:48;7.50;99.90
69533;DHT22;56729;52.036;5.332;2023-04-10T05:01:25;7.50;99.90
69533;DHT22;56729;52.036;5.332;2023-04-10T05:02:54;7.50;99.90
69533;DHT22;56729;52.036;5.332;2023-04-10T05:04:09;7.50;99.90
69533;DHT22;56729;52.036;5.332;2023-04-10T05:05:39;7.50;99.90
69533;DHT22;56729;52.036;5.332;2023-04-10T05:07:00;7.50;99.90
69533;DHT22;56729;52.036;5.332;2023-04-10T05:08:28;7.50;99.90
69533;DHT22;56729;52.036;5.332;2023-04-10T05:09:33;7.50;99.90
69533;DHT22;56729;52.036;5.332;2023-04-10T05:10:53;7.50;99.90
69533;DHT22;56729;52.036;5.332;2023-04-10T05:12:10;7.50;99.90
69533;DHT22;56729;52.036;5.332;2023-04-10T05:13:17;7.50;99.90
69533;DHT22;56729;52.036;5.332;2023-04-10T05:14:27;7.50;99.90
69533;DHT22;56729;52.036;5.332;2023-04-10T05:15:40;7.50;99.90
69533;DHT22;56729;52.036;5.332;2023-04-10T05:17:00;7.50;99.90
69533;DHT22;56729;52.036;5.332;2023-04-10T05:18:20;7.50;99.90
69533;DHT22;56729;52.036;5.332;2023-04-10T05:19:41;7.50;99.90
69533;DHT22;56729;52.036;5.332;2023-04-10T05:21:12;7.50;99.90
69533;DHT22;56729;52.036;5.332;2023-04-10T05:22:37;7.60;99.90
69533;DHT22;56729;52.036;5.332;2023-04-10T05:23:53;7.60;99.90
69533;DHT22;56729;52.036;5.332;2023-04-10T05:25:13;7.60;99.90
69533;DHT22;56729;52.036;5.332;2023-04-10T05:26:36;7.60;99.90
69533;DHT22;56729;52.036;5.332;2023-04-10T05:28:04;7.60;99.90
69533;DHT22;56729;52.036;5.332;2023-04-10T05:29:24;7.70;99.90
69533;DHT22;56729;52.036;5.332;2023-04-10T05:30:40;7.70;99.90
69533;DHT22;56729;52.036;5.332;2023-04-10T05:32:02;7.70;99.90
69533;DHT22;56729;52.036;5.332;2023-04-10T05:33:32;7.70;99.90
69533;DHT22;56729;52.036;5.332;2023-04-10T05:34:43;7.70;99.90
69533;DHT22;56729;52.036;5.332;2023-04-10T05:35:52;7.80;99.90
69533;DHT22;56729;52.036;5.332;2023-04-10T05:37:14;7.80;99.90
69533;DHT22;56729;52.036;5.332;2023-04-10T05:38:39;7.80;99.90
69533;DHT22;56729;52.036;5.332;2023-04-10T05:40:01;7.80;99.90
69533;DHT22;56729;52.036;5.332;2023-04-10T05:41:26;7.80;99.90
69533;DHT22;56729;52.036;5.332;2023-04-10T05:42:39;7.90;99.90
69533;DHT22;56729;52.036;5.332;2023-04-10T05:44:10;7.90;99.90
69533;DHT22;56729;52.036;5.332;2023-04-10T05:45:36;7.90;99.90
69533;DHT22;56729;52.036;5.332;2023-04-10T05:47:05;8.00;99.90
69533;DHT22;56729;52.036;5.332;2023-04-10T05:48:13;8.00;99.90
69533;DHT22;56729;52.036;5.332;2023-04-10T05:49:38;8.00;99.90
69533;DHT22;56729;52.036;5.332;2023-04-10T05:50:55;8.10;99.90
69533;DHT22;56729;52.036;5.332;2023-04-10T05:52:09;8.10;99.90
69533;DHT22;56729;52.036;5.332;2023-04-10T05:53:36;8.10;99.90
69533;DHT22;56729;52.036;5.332;2023-04-10T05:55:10;8.20;99.90
69533;DHT22;56729;52.036;5.332;2023-04-10T05:56:14;8.10;99.90
69533;DHT22;56729;52.036;5.332;2023-04-10T05:57:41;8.20;99.90
69533;DHT22;56729;52.036;5.332;2023-04-10T05:59:08;8.20;99.90
69533;DHT22;56729;52.036;5.332;2023-04-10T06:00:28;8.20;99.90
69533;DHT22;56729;52.036;5.332;2023-04-10T06:01:59;8.30;99.90
69533;DHT22;56729;52.036;5.332;2023-04-10T06:03:02;8.30;99.90
69533;DHT22;56729;52.036;5.332;2023-04-10T06:04:06;8.40;99.90
69533;DHT22;56729;52.036;5.332;2023-04-10T06:05:09;8.40;99.90
69533;DHT22;56729;52.036;5.332;2023-04-10T06:06:13;8.40;99.90
69533;DHT22;56729;52.036;5.332;2023-04-10T06:07:14;8.50;99.90
69533;DHT22;56729;52.036;5.332;2023-04-10T06:08:16;8.50;99.90
69533;DHT22;56729;52.036;5.332;2023-04-10T06:09:18;8.50;99.90
69533;DHT22;56729;52.036;5.332;2023-04-10T06:10:20;8.60;99.90
69533;DHT22;56729;52.036;5.332;2023-04-10T06:11:22;8.60;99.90
69533;DHT22;56729;52.036;5.332;2023-04-10T06:12:27;8.60;99.90
69533;DHT22;56729;52.036;5.332;2023-04-10T06:13:29;8.60;99.90
69533;DHT22;56729;52.036;5.332;2023-04-10T06:14:34;8.60;99.90
69533;DHT22;56729;52.036;5.332;2023-04-10T06:15:37;8.70;99.90
69533;DHT22;56729;52.036;5.332;2023-04-10T06:16:39;8.70;99.90
69533;DHT22;56729;52.036;5.332;2023-04-10T06:17:41;8.80;99.90
69533;DHT22;56729;52.036;5.332;2023-04-10T06:18:47;8.80;99.90
69533;DHT22;56729;52.036;5.332;2023-04-10T06:19:48;8.80;99.90
69533;DHT22;56729;52.036;5.332;2023-04-10T06:20:51;8.80;99.90
69533;DHT22;56729;52.036;5.332;2023-04-10T06:21:53;8.80;99.90
69533;DHT22;56729;52.036;5.332;2023-04-10T06:22:57;8.90;99.90
69533;DHT22;56729;52.036;5.332;2023-04-10T06:23:59;8.90;99.90
69533;DHT22;56729;52.036;5.332;2023-04-10T06:25:02;8.90;99.90
69533;DHT22;56729;52.036;5.332;2023-04-10T06:26:04;9.00;99.90
69533;DHT22;56729;52.036;5.332;2023-04-10T06:27:06;9.00;99.90
69533;DHT22;56729;52.036;5.332;2023-04-10T06:28:09;9.00;99.90
69533;DHT22;56729;52.036;5.332;2023-04-10T06:29:11;9.00;99.90
69533;DHT22;56729;52.036;5.332;2023-04-10T06:30:13;9.10;99.90
69533;DHT22;56729;52.036;5.332;2023-04-10T06:31:18;9.10;99.90
69533;DHT22;56729;52.036;5.332;2023-04-10T06:32:20;9.10;99.90
69533;DHT22;56729;52.036;5.332;2023-04-10T06:33:23;9.20;99.90
69533;DHT22;56729;52.036;5.332;2023-04-10T06:34:27;9.20;99.90
69533;DHT22;56729;52.036;5.332;2023-04-10T06:35:34;9.20;99.90
69533;DHT22;56729;52.036;5.332;2023-04-10T06:36:37;9.20;99.90
69533;DHT22;56729;52.036;5.332;2023-04-10T06:37:41;9.20;99.90
69533;DHT22;56729;52.036;5.332;2023-04-10T06:38:44;9.30;99.90
69533;DHT22;56729;52.036;5.332;2023-04-10T06:39:46;9.30;99.90
69533;DHT22;56729;52.036;5.332;2023-04-10T06:40:48;9.30;99.90
69533;DHT22;56729;52.036;5.332;2023-04-10T06:41:50;9.40;99.90
69533;DHT22;56729;52.036;5.332;2023-04-10T06:43:18;9.40;99.90
69533;DHT22;56729;52.036;5.332;2023-04-10T06:44:20;9.40;99.90
69533;DHT22;56729;52.036;5.332;2023-04-10T06:45:22;9.40;99.90
69533;DHT22;56729;52.036;5.332;2023-04-10T06:46:24;9.50;99.90
69533;DHT22;56729;52.036;5.332;2023-04-10T06:47:27;9.50;99.90
69533;DHT22;56729;52.036;5.332;2023-04-10T06:48:30;9.50;99.90
69533;DHT22;56729;52.036;5.332;2023-04-10T06:49:32;9.50;99.90
69533;DHT22;56729;52.036;5.332;2023-04-10T06:50:34;9.60;99.90
69533;DHT22;56729;52.036;5.332;2023-04-10T06:51:37;9.60;99.90
69533;DHT22;56729;52.036;5.332;2023-04-10T06:52:38;9.60;99.90
69533;DHT22;56729;52.036;5.332;2023-04-10T06:53:40;9.60;99.90
69533;DHT22;56729;52.036;5.332;2023-04-10T06:54:42;9.70;99.90
69533;DHT22;56729;52.036;5.332;2023-04-10T06:55:44;9.70;99.90
69533;DHT22;56729;52.036;5.332;2023-04-10T06:56:47;9.70;99.90
69533;DHT22;56729;52.036;5.332;2023-04-10T06:57:49;9.80;99.90
69533;DHT22;56729;52.036;5.332;2023-04-10T06:58:51;9.80;99.90
69533;DHT22;56729;52.036;5.332;2023-04-10T06:59:53;9.80;99.90
69533;DHT22;56729;52.036;5.332;2023-04-10T07:00:55;9.90;99.90
69533;DHT22;56729;52.036;5.332;2023-04-10T07:01:57;9.90;99.90
69533;DHT22;56729;52.036;5.332;2023-04-10T07:02:58;9.90;99.90
69533;DHT22;56729;52.036;5.332;2023-04-10T07:04:00;9.90;99.90
69533;DHT22;56729;52.036;5.332;2023-04-10T07:05:03;10.00;99.90
69533;DHT22;56729;52.036;5.332;2023-04-10T07:06:05;10.00;99.90
69533;DHT22;56729;52.036;5.332;2023-04-10T07:07:08;10.00;99.90
69533;DHT22;56729;52.036;5.332;2023-04-10T07:08:13;10.00;99.90
69533;DHT22;56729;52.036;5.332;2023-04-10T07:09:15;10.00;99.90
69533;DHT22;56729;52.036;5.332;2023-04-10T07:10:16;10.10;99.90
69533;DHT22;56729;52.036;5.332;2023-04-10T07:11:18;10.10;99.90
69533;DHT22;56729;52.036;5.332;2023-04-10T07:12:20;10.10;99.90
69533;DHT22;56729;52.036;5.332;2023-04-10T07:13:23;10.10;99.90
69533;DHT22;56729;52.036;5.332;2023-04-10T07:14:25;10.20;99.90
69533;DHT22;56729;52.036;5.332;2023-04-10T07:15:27;10.20;99.90
69533;DHT22;56729;52.036;5.332;2023-04-10T07:16:28;10.20;99.90
69533;DHT22;56729;52.036;5.332;2023-04-10T07:17:31;10.20;99.90
69533;DHT22;56729;52.036;5.332;2023-04-10T07:18:33;10.30;99.90
69533;DHT22;56729;52.036;5.332;2023-04-10T07:19:36;10.30;99.90
69533;DHT22;56729;52.036;5.332;2023-04-10T07:20:38;10.40;99.90
69533;DHT22;56729;52.036;5.332;2023-04-10T07:21:40;10.40;99.90
69533;DHT22;56729;52.036;5.332;2023-04-10T07:22:42;10.40;99.90
69533;DHT22;56729;52.036;5.332;2023-04-10T07:23:44;10.50;99.90
69533;DHT22;56729;52.036;5.332;2023-04-10T07:24:46;10.60;99.90
69533;DHT22;56729;52.036;5.332;2023-04-10T07:25:48;10.60;99.80
69533;DHT22;56729;52.036;5.332;2023-04-10T07:26:50;10.60;99.50
69533;DHT22;56729;52.036;5.332;2023-04-10T07:27:51;10.70;99.40
69533;DHT22;56729;52.036;5.332;2023-04-10T07:28:53;10.70;99.50